sensor_id;sensor_type;location;lat;lon;timestamp;pressure;altitude;pressure_sealevel;temperature;humidity
23318;BME280;11831;55.918;37.746;2022-10-18T00:00:32;99901.84;;;9.98;0.00
23318;BME280;11831;55.918;37.746;2022-10-18T00:02:58;99898.31;;;10.10;0.00
23318;BME280;11831;55.918;37.746;2022-10-18T00:05:24;99909.00;;;10.04;0.00
23318;BME280;11831;55.918;37.746;2022-10-18T00:07:50;99893.81;;;9.98;0.00
23318;BME280;11831;55.918;37.746;2022-10-18T00:10:17;99885.63;;;9.92;0.00
23318;BME280;11831;55.918;37.746;2022-10-18T00:12:43;99890.59;;;9.89;0.00
23318;BME280;11831;55.918;37.746;2022-10-18T00:15:10;99892.75;;;10.05;0.00
23318;BME280;11831;55.918;37.746;2022-10-18T00:17:37;99885.94;;;10.16;0.00
23318;BME280;11831;55.918;37.746;2022-10-18T00:20:04;99875.47;;;10.08;0.00
23318;BME280;11831;55.918;37.746;2022-10-18T00:22:30;99886.06;;;9.89;0.00
23318;BME280;11831;55.918;37.746;2022-10-18T00:24:56;99885.63;;;9.92;0.00
23318;BME280;11831;55.918;37.746;2022-10-18T00:27:22;99885.81;;;9.98;0.00
23318;BME280;11831;55.918;37.746;2022-10-18T00:29:51;99856.47;;;9.91;0.00
23318;BME280;11831;55.918;37.746;2022-10-18T00:32:17;99849.19;;;10.05;0.00
23318;BME280;11831;55.918;37.746;2022-10-18T00:34:43;99841.59;;;10.02;0.00
23318;BME280;11831;55.918;37.746;2022-10-18T00:37:09;99858.88;;;9.99;0.00
23318;BME280;11831;55.918;37.746;2022-10-18T00:39:35;99844.97;;;10.29;0.00
23318;BME280;11831;55.918;37.746;2022-10-18T00:42:01;99843.66;;;10.00;0.00
23318;BME280;11831;55.918;37.746;2022-10-18T00:46:55;99830.09;;;10.01;0.00
23318;BME280;11831;55.918;37.746;2022-10-18T00:49:24;99827.59;;;10.06;0.00
23318;BME280;11831;55.918;37.746;2022-10-18T00:54:47;99827.78;;;10.11;0.00
23318;BME280;11831;55.918;37.746;2022-10-18T00:57:14;99830.22;;;9.81;0.00
23318;BME280;11831;55.918;37.746;2022-10-18T00:59:40;99819.09;;;9.84;0.00
23318;BME280;11831;55.918;37.746;2022-10-18T01:02:07;99807.31;;;9.99;0.00
23318;BME280;11831;55.918;37.746;2022-10-18T01:04:34;99807.31;;;9.99;0.00
23318;BME280;11831;55.918;37.746;2022-10-18T01:07:07;99808.88;;;10.06;0.00
23318;BME280;11831;55.918;37.746;2022-10-18T01:09:54;99806.78;;;9.83;0.00
23318;BME280;11831;55.918;37.746;2022-10-18T01:17:31;99818.81;;;9.99;0.00
23318;BME280;11831;55.918;37.746;2022-10-18T01:20:08;99820.50;;;9.93;0.00
23318;BME280;11831;55.918;37.746;2022-10-18T01:22:52;99820.38;;;9.75;0.00
23318;BME280;11831;55.918;37.746;2022-10-18T01:35:53;99806.06;;;10.01;0.00
23318;BME280;11831;55.918;37.746;2022-10-18T01:38:22;99806.78;;;9.83;0.00
23318;BME280;11831;55.918;37.746;2022-10-18T01:40:49;99802.09;;;9.72;0.00
23318;BME280;11831;55.918;37.746;2022-10-18T01:43:17;99785.28;;;10.03;0.00
23318;BME280;11831;55.918;37.746;2022-10-18T01:45:44;99787.72;;;9.73;0.00
23318;BME280;11831;55.918;37.746;2022-10-18T01:48:11;99796.22;;;9.95;0.00
23318;BME280;11831;55.918;37.746;2022-10-18T01:50:38;99787.87;;;9.85;0.00
23318;BME280;11831;55.918;37.746;2022-10-18T01:53:05;99774.75;;;9.83;0.00
23318;BME280;11831;55.918;37.746;2022-10-18T01:55:38;99781.56;;;9.73;0.00
23318;BME280;11831;55.918;37.746;2022-10-18T01:58:27;99783.81;;;9.76;0.00
23318;BME280;11831;55.918;37.746;2022-10-18T02:00:59;99798.28;;;9.61;0.00
23318;BME280;11831;55.918;37.746;2022-10-18T02:03:27;99798.00;;;9.70;0.00
23318;BME280;11831;55.918;37.746;2022-10-18T02:06:08;99793.53;;;9.63;0.00
23318;BME280;11831;55.918;37.746;2022-10-18T02:08:43;99783.75;;;9.51;0.00
23318;BME280;11831;55.918;37.746;2022-10-18T02:11:12;99774.84;;;9.63;0.00
23318;BME280;11831;55.918;37.746;2022-10-18T02:13:41;99793.56;;;9.57;0.00
23318;BME280;11831;55.918;37.746;2022-10-18T02:18:55;99777.31;;;9.65;0.00
23318;BME280;11831;55.918;37.746;2022-10-18T02:21:22;99764.34;;;9.69;0.00
23318;BME280;11831;55.918;37.746;2022-10-18T02:23:50;99774.94;;;9.44;0.00
23318;BME280;11831;55.918;37.746;2022-10-18T02:26:17;99766.72;;;9.45;0.00
23318;BME280;11831;55.918;37.746;2022-10-18T02:28:43;99769.84;;;9.80;0.00
23318;BME280;11831;55.918;37.746;2022-10-18T02:31:14;99774.41;;;9.67;0.00
23318;BME280;11831;55.918;37.746;2022-10-18T02:36:11;99759.16;;;9.80;0.00
23318;BME280;11831;55.918;37.746;2022-10-18T02:38:38;99753.97;;;9.85;0.00
23318;BME280;11831;55.918;37.746;2022-10-18T02:41:06;99747.59;;;9.48;0.00
23318;BME280;11831;55.918;37.746;2022-10-18T02:43:32;99749.34;;;9.68;0.00
23318;BME280;11831;55.918;37.746;2022-10-18T02:46:00;99732.63;;;9.85;0.00
23318;BME280;11831;55.918;37.746;2022-10-18T02:48:26;99733.28;;;9.74;0.00
23318;BME280;11831;55.918;37.746;2022-10-18T02:50:52;99735.06;;;9.55;0.00
23318;BME280;11831;55.918;37.746;2022-10-18T02:53:18;99727.91;;;9.43;0.00
23318;BME280;11831;55.918;37.746;2022-10-18T02:55:44;99723.50;;;9.61;0.00
23318;BME280;11831;55.918;37.746;2022-10-18T02:58:10;99712.31;;;9.78;0.00
23318;BME280;11831;55.918;37.746;2022-10-18T03:00:36;99706.47;;;9.62;0.00
23318;BME280;11831;55.918;37.746;2022-10-18T03:03:02;99705.03;;;9.60;0.00
23318;BME280;11831;55.918;37.746;2022-10-18T03:05:28;99696.72;;;9.75;0.00
23318;BME280;11831;55.918;37.746;2022-10-18T03:07:55;99702.22;;;9.55;0.00
23318;BME280;11831;55.918;37.746;2022-10-18T03:10:22;99691.97;;;9.52;0.00
23318;BME280;11831;55.918;37.746;2022-10-18T03:12:48;99704.13;;;9.41;0.00
23318;BME280;11831;55.918;37.746;2022-10-18T03:15:14;99692.34;;;9.49;0.00
23318;BME280;11831;55.918;37.746;2022-10-18T03:17:40;99687.87;;;9.49;0.00
23318;BME280;11831;55.918;37.746;2022-10-18T03:20:06;99687.22;;;9.54;0.00
23318;BME280;11831;55.918;37.746;2022-10-18T03:22:32;99684.78;;;9.52;0.00
23318;BME280;11831;55.918;37.746;2022-10-18T03:24:58;99681.78;;;9.36;0.00
23318;BME280;11831;55.918;37.746;2022-10-18T03:27:24;99675.66;;;9.28;0.00
23318;BME280;11831;55.918;37.746;2022-10-18T03:29:50;99663.03;;;9.42;0.00
23318;BME280;11831;55.918;37.746;2022-10-18T03:32:16;99644.50;;;9.54;0.00
23318;BME280;11831;55.918;37.746;2022-10-18T03:34:44;99651.25;;;9.25;0.00
23318;BME280;11831;55.918;37.746;2022-10-18T03:37:10;99641.63;;;9.24;0.00
23318;BME280;11831;55.918;37.746;2022-10-18T03:39:36;99640.00;;;9.16;0.00
23318;BME280;11831;55.918;37.746;2022-10-18T03:42:02;99638.56;;;9.20;0.00
23318;BME280;11831;55.918;37.746;2022-10-18T03:44:28;99629.81;;;9.07;0.00
23318;BME280;11831;55.918;37.746;2022-10-18T03:46:54;99633.47;;;9.12;0.00
23318;BME280;11831;55.918;37.746;2022-10-18T03:49:20;99627.31;;;9.12;0.00
23318;BME280;11831;55.918;37.746;2022-10-18T03:51:46;99630.34;;;9.15;0.00
23318;BME280;11831;55.918;37.746;2022-10-18T03:54:12;99639.78;;;9.18;0.00
23318;BME280;11831;55.918;37.746;2022-10-18T03:56:38;99618.63;;;8.85;0.00
23318;BME280;11831;55.918;37.746;2022-10-18T03:59:04;99620.56;;;9.09;0.00
23318;BME280;11831;55.918;37.746;2022-10-18T04:01:30;99612.50;;;9.22;0.00
23318;BME280;11831;55.918;37.746;2022-10-18T04:03:57;99607.47;;;9.01;0.00
23318;BME280;11831;55.918;37.746;2022-10-18T04:06:23;99621.44;;;8.96;0.00
23318;BME280;11831;55.918;37.746;2022-10-18T04:08:49;99627.22;;;8.93;0.00
23318;BME280;11831;55.918;37.746;2022-10-18T04:11:15;99606.63;;;9.07;0.00
23318;BME280;11831;55.918;37.746;2022-10-18T04:13:41;99595.13;;;9.07;0.00
23318;BME280;11831;55.918;37.746;2022-10-18T04:16:07;99590.75;;;9.19;0.00
23318;BME280;11831;55.918;37.746;2022-10-18T04:18:33;99581.13;;;9.11;0.00
23318;BME280;11831;55.918;37.746;2022-10-18T04:20:59;99574.75;;;9.19;0.00
23318;BME280;11831;55.918;37.746;2022-10-18T04:23:25;99586.56;;;8.98;0.00
23318;BME280;11831;55.918;37.746;2022-10-18T04:25:51;99591.09;;;8.97;0.00
23318;BME280;11831;55.918;37.746;2022-10-18T04:28:18;99588.59;;;9.02;0.00
23318;BME280;11831;55.918;37.746;2022-10-18T04:30:48;99574.06;;;8.98;0.00
23318;BME280;11831;55.918;37.746;2022-10-18T04:33:14;99568.84;;;9.10;0.00
23318;BME280;11831;55.918;37.746;2022-10-18T04:35:40;99562.62;;;9.16;0.00
23318;BME280;11831;55.918;37.746;2022-10-18T04:38:06;99564.69;;;9.14;0.00
23318;BME280;11831;55.918;37.746;2022-10-18T04:40:32;99559.13;;;9.22;0.00
23318;BME280;11831;55.918;37.746;2022-10-18T04:42:57;99556.47;;;9.16;0.00
23318;BME280;11831;55.918;37.746;2022-10-18T04:45:23;99558.78;;;9.12;0.00
23318;BME280;11831;55.918;37.746;2022-10-18T04:47:49;99556.69;;;9.21;0.00
23318;BME280;11831;55.918;37.746;2022-10-18T04:50:16;99546.34;;;9.31;0.00
23318;BME280;11831;55.918;37.746;2022-10-18T04:52:42;99547.66;;;9.15;0.00
23318;BME280;11831;55.918;37.746;2022-10-18T04:55:08;99546.25;;;9.13;0.00
23318;BME280;11831;55.918;37.746;2022-10-18T04:57:34;99541.00;;;9.31;0.00
23318;BME280;11831;55.918;37.746;2022-10-18T05:00:00;99545.47;;;9.06;0.00
23318;BME280;11831;55.918;37.746;2022-10-18T05:02:26;99539.97;;;9.32;0.00
23318;BME280;11831;55.918;37.746;2022-10-18T05:04:52;99542.47;;;9.27;0.00
23318;BME280;11831;55.918;37.746;2022-10-18T05:07:18;99544.00;;;9.10;0.00
23318;BME280;11831;55.918;37.746;2022-10-18T05:09:44;99543.16;;;9.16;0.00
23318;BME280;11831;55.918;37.746;2022-10-18T05:12:10;99544.09;;;9.28;0.00
23318;BME280;11831;55.918;37.746;2022-10-18T05:14:36;99534.72;;;9.44;0.00
23318;BME280;11831;55.918;37.746;2022-10-18T05:17:02;99535.34;;;9.14;0.00
23318;BME280;11831;55.918;37.746;2022-10-18T05:19:28;99534.31;;;9.22;0.00
23318;BME280;11831;55.918;37.746;2022-10-18T05:21:54;99542.94;;;9.42;0.00
23318;BME280;11831;55.918;37.746;2022-10-18T05:24:20;99552.44;;;9.38;0.00
23318;BME280;11831;55.918;37.746;2022-10-18T05:26:46;99546.50;;;9.36;0.00
23318;BME280;11831;55.918;37.746;2022-10-18T05:29:12;99547.91;;;9.39;0.00
23318;BME280;11831;55.918;37.746;2022-10-18T05:31:38;99546.81;;;9.21;0.00
23318;BME280;11831;55.918;37.746;2022-10-18T05:34:04;99556.28;;;9.42;0.00
23318;BME280;11831;55.918;37.746;2022-10-18T05:36:30;99550.47;;;9.27;0.00
23318;BME280;11831;55.918;37.746;2022-10-18T05:38:56;99539.59;;;9.28;0.00
23318;BME280;11831;55.918;37.746;2022-10-18T05:41:22;99549.91;;;9.43;0.00
23318;BME280;11831;55.918;37.746;2022-10-18T05:43:48;99556.47;;;9.47;0.00
23318;BME280;11831;55.918;37.746;2022-10-18T05:46:14;99562.22;;;9.44;0.00
23318;BME280;11831;55.918;37.746;2022-10-18T05:48:41;99566.66;;;9.32;0.00
23318;BME280;11831;55.918;37.746;2022-10-18T05:51:07;99562.62;;;9.23;0.00
23318;BME280;11831;55.918;37.746;2022-10-18T05:53:33;99563.81;;;9.27;0.00
23318;BME280;11831;55.918;37.746;2022-10-18T05:56:00;99551.66;;;9.31;0.00
23318;BME280;11831;55.918;37.746;2022-10-18T05:58:26;99556.28;;;9.42;0.00
23318;BME280;11831;55.918;37.746;2022-10-18T06:00:52;99548.34;;;9.36;0.00
23318;BME280;11831;55.918;37.746;2022-10-18T06:03:18;99540.03;;;9.50;0.00
23318;BME280;11831;55.918;37.746;2022-10-18T06:05:44;99541.00;;;9.56;0.00
23318;BME280;11831;55.918;37.746;2022-10-18T06:08:10;99536.94;;;9.72;0.00
23318;BME280;11831;55.918;37.746;2022-10-18T06:10:39;99519.44;;;9.76;0.00
23318;BME280;11831;55.918;37.746;2022-10-18T06:13:05;99521.16;;;9.70;0.00
23318;BME280;11831;55.918;37.746;2022-10-18T06:15:31;99504.66;;;9.55;0.00
23318;BME280;11831;55.918;37.746;2022-10-18T06:17:58;99507.97;;;9.93;0.00
23318;BME280;11831;55.918;37.746;2022-10-18T06:20:24;99493.19;;;10.09;0.00
23318;BME280;11831;55.918;37.746;2022-10-18T06:22:52;99482.44;;;9.98;0.00
23318;BME280;11831;55.918;37.746;2022-10-18T06:25:19;99469.94;;;9.80;0.00
23318;BME280;11831;55.918;37.746;2022-10-18T06:27:45;99478.66;;;9.69;0.00
23318;BME280;11831;55.918;37.746;2022-10-18T06:30:11;99479.09;;;9.65;0.00
23318;BME280;11831;55.918;37.746;2022-10-18T06:32:36;99467.47;;;9.96;0.00
23318;BME280;11831;55.918;37.746;2022-10-18T06:35:03;99455.22;;;10.07;0.00
23318;BME280;11831;55.918;37.746;2022-10-18T06:37:29;99447.94;;;9.59;0.00
23318;BME280;11831;55.918;37.746;2022-10-18T06:39:55;99435.78;;;10.00;0.00
23318;BME280;11831;55.918;37.746;2022-10-18T06:42:21;99415.31;;;10.12;0.00
23318;BME280;11831;55.918;37.746;2022-10-18T06:44:47;99416.94;;;9.95;0.00
23318;BME280;11831;55.918;37.746;2022-10-18T06:47:14;99397.59;;;9.81;0.00
23318;BME280;11831;55.918;37.746;2022-10-18T06:49:40;99387.22;;;9.73;0.00
23318;BME280;11831;55.918;37.746;2022-10-18T06:52:06;99379.41;;;9.72;0.00
23318;BME280;11831;55.918;37.746;2022-10-18T06:54:32;99365.72;;;9.50;0.00
23318;BME280;11831;55.918;37.746;2022-10-18T06:56:58;99368.00;;;9.46;0.00
23318;BME280;11831;55.918;37.746;2022-10-18T06:59:27;99347.91;;;9.62;0.00
23318;BME280;11831;55.918;37.746;2022-10-18T07:01:53;99333.31;;;9.46;0.00
23318;BME280;11831;55.918;37.746;2022-10-18T07:04:19;99345.03;;;9.27;0.00
23318;BME280;11831;55.918;37.746;2022-10-18T07:06:45;99351.41;;;9.44;0.00
23318;BME280;11831;55.918;37.746;2022-10-18T07:09:11;99339.09;;;9.43;0.00
23318;BME280;11831;55.918;37.746;2022-10-18T07:11:37;99306.03;;;9.44;0.00
23318;BME280;11831;55.918;37.746;2022-10-18T07:14:03;99332.22;;;9.36;0.00
23318;BME280;11831;55.918;37.746;2022-10-18T07:16:30;99328.34;;;9.31;0.00
23318;BME280;11831;55.918;37.746;2022-10-18T07:18:56;99316.81;;;9.19;0.00
23318;BME280;11831;55.918;37.746;2022-10-18T07:21:23;99303.75;;;9.29;0.00
23318;BME280;11831;55.918;37.746;2022-10-18T07:23:50;99277.13;;;9.41;0.00
23318;BME280;11831;55.918;37.746;2022-10-18T07:26:18;99293.38;;;9.40;0.00
23318;BME280;11831;55.918;37.746;2022-10-18T07:28:46;99288.75;;;9.47;0.00
23318;BME280;11831;55.918;37.746;2022-10-18T07:31:13;99291.16;;;9.37;0.00
23318;BME280;11831;55.918;37.746;2022-10-18T07:33:39;99295.44;;;9.38;0.00
23318;BME280;11831;55.918;37.746;2022-10-18T07:36:08;99287.56;;;9.43;0.00
23318;BME280;11831;55.918;37.746;2022-10-18T07:38:35;99265.41;;;9.42;0.00
23318;BME280;11831;55.918;37.746;2022-10-18T07:41:02;99244.44;;;9.46;0.00
23318;BME280;11831;55.918;37.746;2022-10-18T07:43:29;99223.03;;;9.64;0.00
23318;BME280;11831;55.918;37.746;2022-10-18T07:45:59;99202.28;;;9.78;0.00
23318;BME280;11831;55.918;37.746;2022-10-18T07:48:25;99192.03;;;10.05;0.00
23318;BME280;11831;55.918;37.746;2022-10-18T07:50:52;99172.03;;;10.07;0.00
23318;BME280;11831;55.918;37.746;2022-10-18T07:53:18;99151.31;;;10.21;0.00
23318;BME280;11831;55.918;37.746;2022-10-18T07:55:44;99141.75;;;10.37;0.00
23318;BME280;11831;55.918;37.746;2022-10-18T07:58:10;99124.75;;;10.78;0.00
23318;BME280;11831;55.918;37.746;2022-10-18T08:00:37;99108.81;;;10.83;0.00
23318;BME280;11831;55.918;37.746;2022-10-18T08:03:03;99109.47;;;10.90;0.00
23318;BME280;11831;55.918;37.746;2022-10-18T08:05:29;99089.69;;;11.19;0.00
23318;BME280;11831;55.918;37.746;2022-10-18T08:07:55;99080.69;;;11.26;0.00
23318;BME280;11831;55.918;37.746;2022-10-18T08:10:22;99065.88;;;11.35;0.00
23318;BME280;11831;55.918;37.746;2022-10-18T08:12:49;99060.81;;;11.05;0.00
23318;BME280;11831;55.918;37.746;2022-10-18T08:15:15;99041.34;;;11.09;0.00
23318;BME280;11831;55.918;37.746;2022-10-18T08:17:41;99041.94;;;11.28;0.00
23318;BME280;11831;55.918;37.746;2022-10-18T08:20:10;99032.03;;;11.12;0.00
23318;BME280;11831;55.918;37.746;2022-10-18T08:22:36;99002.72;;;10.88;0.00
23318;BME280;11831;55.918;37.746;2022-10-18T08:25:03;98978.75;;;10.94;0.00
23318;BME280;11831;55.918;37.746;2022-10-18T08:27:29;98959.88;;;10.55;0.00
23318;BME280;11831;55.918;37.746;2022-10-18T08:29:55;98934.81;;;10.73;0.00
23318;BME280;11831;55.918;37.746;2022-10-18T08:32:21;98928.03;;;10.70;0.00
23318;BME280;11831;55.918;37.746;2022-10-18T08:34:47;98914.22;;;10.73;0.00
23318;BME280;11831;55.918;37.746;2022-10-18T08:37:14;98914.84;;;10.64;0.00
23318;BME280;11831;55.918;37.746;2022-10-18T08:39:40;98901.91;;;10.72;0.00
23318;BME280;11831;55.918;37.746;2022-10-18T08:44:51;98878.41;;;10.74;0.00
23318;BME280;11831;55.918;37.746;2022-10-18T08:49:45;98849.31;;;10.78;0.00
23318;BME280;11831;55.918;37.746;2022-10-18T08:52:34;98832.69;;;10.59;0.00
23318;BME280;11831;55.918;37.746;2022-10-18T08:55:03;98817.63;;;10.86;0.00
23318;BME280;11831;55.918;37.746;2022-10-18T08:57:34;98835.03;;;11.06;0.00
23318;BME280;11831;55.918;37.746;2022-10-18T09:00:02;98845.19;;;10.87;0.00
23318;BME280;11831;55.918;37.746;2022-10-18T09:02:44;98840.94;;;11.08;0.00
23318;BME280;11831;55.918;37.746;2022-10-18T09:05:18;98833.75;;;11.30;0.00
23318;BME280;11831;55.918;37.746;2022-10-18T09:10:23;98847.19;;;10.46;0.00
23318;BME280;11831;55.918;37.746;2022-10-18T09:15:28;98839.50;;;11.39;0.00
23318;BME280;11831;55.918;37.746;2022-10-18T09:20:46;98846.09;;;11.53;0.00
23318;BME280;11831;55.918;37.746;2022-10-18T09:23:18;98845.81;;;11.93;0.00
23318;BME280;11831;55.918;37.746;2022-10-18T09:28:14;98821.16;;;11.91;0.00
23318;BME280;11831;55.918;37.746;2022-10-18T09:30:48;98827.25;;;12.08;0.00
23318;BME280;11831;55.918;37.746;2022-10-18T09:36:04;98790.88;;;12.18;0.00
23318;BME280;11831;55.918;37.746;2022-10-18T09:38:32;98781.19;;;12.11;0.00
23318;BME280;11831;55.918;37.746;2022-10-18T09:41:01;98765.69;;;12.19;0.00
23318;BME280;11831;55.918;37.746;2022-10-18T09:43:36;98775.00;;;11.84;0.00
23318;BME280;11831;55.918;37.746;2022-10-18T09:46:04;98758.81;;;11.30;0.00
23318;BME280;11831;55.918;37.746;2022-10-18T09:48:41;98744.47;;;11.36;0.00
23318;BME280;11831;55.918;37.746;2022-10-18T09:51:11;98742.00;;;11.57;0.00
23318;BME280;11831;55.918;37.746;2022-10-18T09:54:01;98739.81;;;11.75;0.00
23318;BME280;11831;55.918;37.746;2022-10-18T09:56:29;98728.19;;;11.65;0.00
23318;BME280;11831;55.918;37.746;2022-10-18T09:58:56;98727.06;;;11.82;0.00
23318;BME280;11831;55.918;37.746;2022-10-18T10:01:23;98709.69;;;11.63;0.00
23318;BME280;11831;55.918;37.746;2022-10-18T10:03:50;98702.06;;;11.28;0.00
23318;BME280;11831;55.918;37.746;2022-10-18T10:06:21;98704.44;;;11.73;0.00
23318;BME280;11831;55.918;37.746;2022-10-18T10:08:52;98691.84;;;11.47;0.00
23318;BME280;11831;55.918;37.746;2022-10-18T10:14:13;98672.91;;;11.54;0.00
23318;BME280;11831;55.918;37.746;2022-10-18T10:16:58;98668.66;;;11.58;0.00
23318;BME280;11831;55.918;37.746;2022-10-18T10:21:54;98679.59;;;11.78;0.00
23318;BME280;11831;55.918;37.746;2022-10-18T10:27:06;98650.47;;;11.60;0.00
23318;BME280;11831;55.918;37.746;2022-10-18T10:32:13;98626.84;;;11.78;0.00
23318;BME280;11831;55.918;37.746;2022-10-18T10:34:39;98637.09;;;11.87;0.00
23318;BME280;11831;55.918;37.746;2022-10-18T10:39:54;98645.78;;;11.72;0.00
23318;BME280;11831;55.918;37.746;2022-10-18T10:42:29;98644.31;;;12.23;0.00
23318;BME280;11831;55.918;37.746;2022-10-18T10:44:56;98637.50;;;12.05;0.00
23318;BME280;11831;55.918;37.746;2022-10-18T10:47:30;98638.28;;;11.42;0.00
23318;BME280;11831;55.918;37.746;2022-10-18T10:49:57;98617.12;;;11.40;0.00
23318;BME280;11831;55.918;37.746;2022-10-18T10:52:24;98600.22;;;11.67;0.00
23318;BME280;11831;55.918;37.746;2022-10-18T10:54:53;98611.22;;;11.70;0.00
23318;BME280;11831;55.918;37.746;2022-10-18T10:57:22;98618.31;;;11.81;0.00
23318;BME280;11831;55.918;37.746;2022-10-18T10:59:51;98610.66;;;11.95;0.00
23318;BME280;11831;55.918;37.746;2022-10-18T11:02:22;98607.78;;;11.75;0.00
23318;BME280;11831;55.918;37.746;2022-10-18T11:04:49;98597.19;;;11.58;0.00
23318;BME280;11831;55.918;37.746;2022-10-18T11:10:15;98596.28;;;11.20;0.00
23318;BME280;11831;55.918;37.746;2022-10-18T11:12:46;98603.63;;;11.03;0.00
23318;BME280;11831;55.918;37.746;2022-10-18T11:15:18;98581.19;;;10.82;0.00
23318;BME280;11831;55.918;37.746;2022-10-18T11:17:47;98590.91;;;10.94;0.00
23318;BME280;11831;55.918;37.746;2022-10-18T11:20:23;98608.41;;;10.79;0.00
23318;BME280;11831;55.918;37.746;2022-10-18T11:25:24;98609.09;;;10.70;0.00
23318;BME280;11831;55.918;37.746;2022-10-18T11:27:57;98601.91;;;11.19;0.00
23318;BME280;11831;55.918;37.746;2022-10-18T11:33:20;98593.66;;;11.52;0.00
23318;BME280;11831;55.918;37.746;2022-10-18T11:43:47;98589.66;;;11.82;0.00
23318;BME280;11831;55.918;37.746;2022-10-18T11:46:27;98584.06;;;11.89;0.00
23318;BME280;11831;55.918;37.746;2022-10-18T11:54:40;98592.88;;;11.84;0.00
23318;BME280;11831;55.918;37.746;2022-10-18T12:04:46;98592.72;;;11.96;0.00
23318;BME280;11831;55.918;37.746;2022-10-18T12:07:15;98602.56;;;11.90;0.00
23318;BME280;11831;55.918;37.746;2022-10-18T12:09:44;98588.09;;;12.28;0.00
23318;BME280;11831;55.918;37.746;2022-10-18T12:12:20;98594.09;;;12.03;0.00
23318;BME280;11831;55.918;37.746;2022-10-18T12:14:50;98601.16;;;11.82;0.00
23318;BME280;11831;55.918;37.746;2022-10-18T12:17:23;98607.06;;;11.85;0.00
23318;BME280;11831;55.918;37.746;2022-10-18T12:19:53;98609.47;;;12.18;0.00
23318;BME280;11831;55.918;37.746;2022-10-18T12:25:09;98602.06;;;12.30;0.00
23318;BME280;11831;55.918;37.746;2022-10-18T12:27:39;98602.75;;;12.16;0.00
23318;BME280;11831;55.918;37.746;2022-10-18T12:30:08;98609.69;;;12.11;0.00
23318;BME280;11831;55.918;37.746;2022-10-18T12:32:39;98605.81;;;12.29;0.00
23318;BME280;11831;55.918;37.746;2022-10-18T12:35:09;98608.47;;;12.29;0.00
23318;BME280;11831;55.918;37.746;2022-10-18T12:40:14;98613.47;;;12.58;0.00
23318;BME280;11831;55.918;37.746;2022-10-18T12:42:46;98609.19;;;12.62;0.00
23318;BME280;11831;55.918;37.746;2022-10-18T12:47:38;98603.50;;;12.53;0.00
23318;BME280;11831;55.918;37.746;2022-10-18T12:50:06;98599.31;;;12.72;0.00
23318;BME280;11831;55.918;37.746;2022-10-18T12:52:36;98601.06;;;12.52;0.00
23318;BME280;11831;55.918;37.746;2022-10-18T12:55:06;98612.44;;;12.74;0.00
23318;BME280;11831;55.918;37.746;2022-10-18T13:13:27;98605.87;;;13.07;0.00
23318;BME280;11831;55.918;37.746;2022-10-18T13:15:58;98599.16;;;13.04;0.00
23318;BME280;11831;55.918;37.746;2022-10-18T13:18:48;98581.00;;;13.27;0.00
23318;BME280;11831;55.918;37.746;2022-10-18T13:21:28;98625.97;;;13.04;0.00
23318;BME280;11831;55.918;37.746;2022-10-18T13:31:53;98598.97;;;13.26;0.00
23318;BME280;11831;55.918;37.746;2022-10-18T13:34:24;98609.44;;;13.28;0.00
23318;BME280;11831;55.918;37.746;2022-10-18T13:39:27;98616.88;;;13.11;0.00
23318;BME280;11831;55.918;37.746;2022-10-18T13:44:29;98634.63;;;13.17;0.00
23318;BME280;11831;55.918;37.746;2022-10-18T14:02:55;98616.59;;;13.12;0.00
23318;BME280;11831;55.918;37.746;2022-10-18T14:05:34;98636.28;;;13.23;0.00
23318;BME280;11831;55.918;37.746;2022-10-18T14:08:03;98631.38;;;13.15;0.00
23318;BME280;11831;55.918;37.746;2022-10-18T14:10:37;98629.56;;;13.25;0.00
23318;BME280;11831;55.918;37.746;2022-10-18T14:13:06;98621.37;;;12.90;0.00
23318;BME280;11831;55.918;37.746;2022-10-18T14:15:41;98619.44;;;13.48;0.00
23318;BME280;11831;55.918;37.746;2022-10-18T14:18:12;98628.00;;;14.31;0.00
23318;BME280;11831;55.918;37.746;2022-10-18T14:20:43;98656.22;;;13.73;0.00
23318;BME280;11831;55.918;37.746;2022-10-18T14:23:16;98626.72;;;13.88;0.00
23318;BME280;11831;55.918;37.746;2022-10-18T14:25:43;98636.34;;;13.68;0.00
23318;BME280;11831;55.918;37.746;2022-10-18T14:28:14;98633.66;;;13.68;0.00
23318;BME280;11831;55.918;37.746;2022-10-18T14:30:56;98620.78;;;14.01;0.00
23318;BME280;11831;55.918;37.746;2022-10-18T14:33:34;98619.97;;;13.95;0.00
23318;BME280;11831;55.918;37.746;2022-10-18T14:36:08;98592.22;;;14.56;0.00
23318;BME280;11831;55.918;37.746;2022-10-18T14:38:35;98637.66;;;14.63;0.00
23318;BME280;11831;55.918;37.746;2022-10-18T14:41:15;98648.97;;;13.68;0.00
23318;BME280;11831;55.918;37.746;2022-10-18T14:43:44;98644.69;;;13.67;0.00
23318;BME280;11831;55.918;37.746;2022-10-18T14:48:41;98651.16;;;14.22;0.00
23318;BME280;11831;55.918;37.746;2022-10-18T14:51:08;98649.66;;;15.01;0.00
23318;BME280;11831;55.918;37.746;2022-10-18T14:53:37;98649.22;;;14.58;0.00
23318;BME280;11831;55.918;37.746;2022-10-18T14:56:04;98647.31;;;14.79;0.00
23318;BME280;11831;55.918;37.746;2022-10-18T14:58:33;98661.06;;;14.32;0.00
23318;BME280;11831;55.918;37.746;2022-10-18T15:00:59;98644.16;;;14.06;0.00
23318;BME280;11831;55.918;37.746;2022-10-18T15:03:25;98654.66;;;13.92;0.00
23318;BME280;11831;55.918;37.746;2022-10-18T15:05:57;98665.13;;;14.04;0.00
23318;BME280;11831;55.918;37.746;2022-10-18T15:08:31;98671.59;;;14.43;0.00
23318;BME280;11831;55.918;37.746;2022-10-18T15:10:59;98680.19;;;13.94;0.00
23318;BME280;11831;55.918;37.746;2022-10-18T15:13:25;98689.56;;;14.02;0.00
23318;BME280;11831;55.918;37.746;2022-10-18T15:15:52;98695.66;;;15.04;0.00
23318;BME280;11831;55.918;37.746;2022-10-18T15:18:20;98674.75;;;14.76;0.00
23318;BME280;11831;55.918;37.746;2022-10-18T15:21:05;98700.22;;;14.99;0.00
23318;BME280;11831;55.918;37.746;2022-10-18T15:23:31;98702.25;;;14.12;0.00
23318;BME280;11831;55.918;37.746;2022-10-18T15:26:04;98698.69;;;13.76;0.00
23318;BME280;11831;55.918;37.746;2022-10-18T15:28:41;98694.38;;;13.75;0.00
23318;BME280;11831;55.918;37.746;2022-10-18T15:31:30;98717.22;;;14.94;0.00
23318;BME280;11831;55.918;37.746;2022-10-18T15:34:20;98687.09;;;13.55;0.00